KBTM/BTM METAR and TAF weather

Enter ICAO airport designator
Station Type Date Time Source
KBTM METAR 2022/06/28 13:53 UTC NOAA

KBTM 281353Z AUTO 10006KT 10SM FEW120 14/03 A3026 RMK AO2 RAB26E35 SLP191 P0000 T01440033


Station Type Date Time Source
KBTM Decoded METAR 2022/06/28 13:53 UTC NOAA

BERT MOONEY AIRPORT, MT, United States (KBTM) 45-58N 112-30W 1688M
Jun 28, 2022 - 09:53 AM EDT / 2022.06.28 1353 UTC
Wind: from the E (100 degrees) at 7 MPH (6 KT):0
Visibility: 10 mile(s):0
Sky conditions: mostly clear
Precipitation last hour: A trace
Temperature: 57.9 F (14.4 C)
Dew Point: 37.9 F (3.3 C)
Relative Humidity: 47%
Pressure (altimeter): 30.26 in. Hg (1024 hPa)
ob: KBTM 281353Z AUTO 10006KT 10SM FEW120 14/03 A3026 RMK AO2 RAB26E35 SLP191 P0000 T01440033
cycle: 14

Station Type Date Time Source
KBTM TAF 2022/06/28 12:28 UTC NOAA

TAF KBTM 281126Z 2812/2912 16006KT P6SM FEW120
FM281900 22015G25KT P6SM SCT100
FM282100 24015G25KT P6SM VCSH BKN100 PROB30 2821/2901 -TSRA BKN050CB
FM290300 21007KT P6SM SCT120

Example: see airport list